Погода Сабунчуна 2 недели

Апшеронский район, Азербайджан

21 апреля-04 мая
  • 21апреля
    Сегодня
    +14°
    +27°
    Ясно и безоблачно
    ВремяПогодаТемператураВлажностьДавлениеВетер, м/сВероятность осадков
    01:00Ясно и безоблачно+16°C88 %754 мм1.0 м/с2 %
    04:00Ясно и безоблачно+15°C88 %753 мм1.3 м/с2 %
    07:00Ясно и безоблачно+16°C76 %753 мм1.3 м/с2 %
    10:00Ясно и безоблачно+24°C49 %754 мм4.0 м/с2 %
    13:00Ясно и безоблачно+26°C40 %753 мм6.0 м/с2 %
    16:00Ясно и безоблачно+25°C45 %752 мм6.9 м/с2 %
    19:00Ясно и безоблачно+21°C65 %752 мм5.9 м/с2 %
    22:00Ясно и безоблачно+18°C69 %754 мм3.8 м/с2 %
  • 22апреля
    Понедельник
    +15°
    +22°
    Ясно и безоблачно
    ВремяПогодаТемператураВлажностьДавлениеВетер, м/сВероятность осадков
    01:00Практически безоблачно+16°C69 %755 мм4.1 м/с2 %
    04:00Облачно с прояснениями+15°C73 %756 мм8.4 м/с2 %
    07:00Небольшая облачность+15°C83 %758 мм7.0 м/с6 %
    10:00Облачно с прояснениями+19°C64 %759 мм9.4 м/с11 %
    13:00Ясно и безоблачно+21°C55 %759 мм10.2 м/с3 %
    16:00Практически безоблачно+21°C55 %759 мм9.0 м/с2 %
    19:00Практически безоблачно+18°C65 %760 мм7.2 м/с2 %
    22:00Практически безоблачно+16°C61 %760 мм5.4 м/с2 %
  • 23апреля
    Вторник
    +12°
    +24°
    Ясно и безоблачно
    ВремяПогодаТемператураВлажностьДавлениеВетер, м/сВероятность осадков
    01:00Ясно и безоблачно+16°C52 %760 мм3.8 м/с2 %
    04:00Практически безоблачно+16°C55 %760 мм1.9 м/с2 %
    07:00Ясно и безоблачно+17°C53 %761 мм3.1 м/с2 %
    10:00Небольшая облачность+22°C38 %762 мм7.8 м/с2 %
    13:00Ясно и безоблачно+23°C36 %762 мм8.2 м/с2 %
    16:00Ясно и безоблачно+23°C39 %761 мм7.7 м/с2 %
    19:00Практически безоблачно+19°C57 %762 мм6.5 м/с2 %
    22:00Ясно и безоблачно+16°C60 %763 мм4.5 м/с2 %
  • 24апреля
    Среда
    +15°
    +28°
    Ясно и безоблачно
    ВремяПогодаТемператураВлажностьДавлениеВетер, м/сВероятность осадков
    01:00Ясно и безоблачно+15°C60 %762 мм3.5 м/с2 %
    04:00Ясно и безоблачно+15°C70 %762 мм1.4 м/с2 %
    07:00Ясно и безоблачно+15°C65 %762 мм0.9 м/с2 %
    10:00Ясно и безоблачно+23°C30 %762 мм1.1 м/с2 %
    13:00Ясно и безоблачно+27°C25 %762 мм2.8 м/с2 %
    16:00Ясно и безоблачно+27°C28 %761 мм5.1 м/с2 %
    19:00Ясно и безоблачно+22°C51 %760 мм5.2 м/с2 %
    22:00Ясно и безоблачно+18°C66 %761 мм3.6 м/с2 %
  • 25апреля
    Четверг
    +14°
    +24°
    Практически безоблачно
    ВремяПогодаТемператураВлажностьДавлениеВетер, м/сВероятность осадков
    01:00Ясно и безоблачно+17°C74 %760 мм3.4 м/с2 %
    04:00Практически безоблачно+16°C80 %760 мм3.0 м/с2 %
    07:00Небольшая облачность+16°C73 %760 мм2.8 м/с2 %
    10:00Небольшая облачность+22°C48 %760 мм6.6 м/с2 %
    13:00Практически безоблачно+24°C40 %760 мм8.4 м/с2 %
    16:00Практически безоблачно+24°C45 %759 мм8.6 м/с2 %
    19:00Ясно и безоблачно+20°C73 %759 мм7.4 м/с2 %
    22:00Ясно и безоблачно+17°C82 %760 мм4.8 м/с2 %
Мы используем cookies
Соглашаюсь